Mount Berry, GA (30149)

2:16 AM EDT on July 26, 2016 (GMT -0400)
Oak Hill & The Martha Berry Museum | | Change Station

Elev 643 ft 34.28 °N, 85.18 °W | Updated 14 minutes ago

Light Rain
Light Rain
75.2 °F
Feels Like 73 °F
N
0.0
Wind Variable Wind from East

Today
High -- | Low -- °F
--% Chance of Precip.
Yesterday
High -- | Low -- °F
Precip. -- in
Pressure 30.04 in
Visibility 8.0 miles
Clouds Overcast 9500 ft
Heat Index 73 °F
Dew Point 74 °F
Humidity 96%
Rainfall 0.12 in
Snow Depth Not available.
6:47 AM 8:46 PM
Waning Gibbous, 58% visible
METAR KRMG 260553Z AUTO 17005KT 8SM -RA OVC095 24/23 A3007 RMK AO2 SLP170 P0005 60006 T02390233 10339 20239 50008
Pressure 30.04 in
Visibility 8.0 miles
Clouds Overcast 9500 ft
Heat Index 73 °F
Dew Point 74 °F
Humidity 96%
Rainfall 0.12 in
Snow Depth Not available.
6:47 AM 8:46 PM
Waning Gibbous, 58% visible
METAR KRMG 260553Z AUTO 17005KT 8SM -RA OVC095 24/23 A3007 RMK AO2 SLP170 P0005 60006 T02390233 10339 20239 50008

10-Day Weather Forecast

Almanac

Astronomy

Jul. 26, 2016 Rise Set
Actual Time
Civil Twilight
Nautical Twilight
Astronomical Twilight
Moon
Length of Visible Light
Length of Day
Tomorrow will be .
, % of the Moon is Illuminated

Today's Extremes

State Highs State Lows

Community

WunderPhotos

Upload Photos

1,927,547 photos uploaded!

WunderBlog® & News

Nearby

Air Quality

  Air Quality AQ Index Pollutant
Not available.

Snow Depth

Station Depth Elevation

Earthquake Activity

City Distance Mag. Time & Date
Minimum magnitude displayed is 2.5.

Coastal Water Temperatures

Place Temperature

Stations

Nearby Weather Stations

Station Location Temp. Windchill Dew Point Humidity Wind Precip. Elev Updated Type
                   

Watches & Warnings

There are currently no watches in effect.